Financing Programs

Don’t let financial concerns stand between you and your dreams.

Spirit Aviation is proud to partner with Pilot Finance to provide affordable financial solutions for those who want to put flight training in reach.

We can help you find an easy and fast solution to your financing needs. In fact, Pilot Finance can have approval for you within just 24 hours. The process is quick and easy to complete—which means you can start working on getting your flight certification in no time!

Plus, Pilot Finance offers many flexible financing programs to choose from, so you can pick the product that meets your needs. All you have to do to get started is call Spirit Aviation at 706-595-1300—we’ll be happy to tell you more.

About Pilot Finance

Pilot Finance is a privately owned company that was founded exclusively to provide flight training financing. Founded in 1999, Pilot is owned by experienced flight professional who are dedicated to helping others achieve the dream of flying. Pilot Finance works with hundreds of flight schools across the United States. Learn more about Pilot Finance here.

NOAA Weather

KHQU

Last Updated on Mar 2 2024, 2:10 pm EST

Current Conditions: Overcast

NOAA Icon

Temp: 59°F

Wind: NW at 4mph

Humidity: 84%

Dewpoint: 54.1°F

Your 5-Day Forecast at a Glance

KHQU Metar

KHQU 021930Z AUTO 36004KT 10SM OVC011 15/12 A3014 RMK AO2 T01510123